createdAt,value
2018-09-28T00:01:02.422Z,12.53
2018-09-28T00:03:31.813Z,11.23
2018-09-28T00:06:08.117Z,17.05
2018-09-28T00:08:37.589Z,10.80
2018-09-28T00:11:07.036Z,13.37
2018-09-28T00:13:36.659Z,10.23
2018-09-28T00:16:06.183Z,12.07
2018-09-28T00:18:35.579Z,15.33
2018-09-28T00:21:05.200Z,9.73
2018-09-28T00:23:34.668Z,13.53
2018-09-28T00:26:05.188Z,16.42
2018-09-28T00:28:34.706Z,12.97
2018-09-28T00:31:04.255Z,12.23
2018-09-28T00:33:33.721Z,13.27
2018-09-28T00:40:59.233Z,11.73
2018-09-28T00:43:28.630Z,14.73
2018-09-28T00:45:58.035Z,14.03
2018-09-28T00:48:27.577Z,13.10
2018-09-28T00:50:57.060Z,15.83
2018-09-28T00:53:26.600Z,8.30
2018-09-28T00:55:56.010Z,15.40
2018-09-28T00:58:25.530Z,17.67
2018-09-28T01:00:55.102Z,11.63
2018-09-28T01:03:24.683Z,19.90
2018-09-28T01:05:54.239Z,14.67
2018-09-28T01:08:23.707Z,15.83
2018-09-28T01:10:53.262Z,13.33
2018-09-28T01:13:22.790Z,16.90
2018-09-28T01:15:52.378Z,17.37
2018-09-28T01:18:21.702Z,8.58
2018-09-28T01:20:51.106Z,16.43
2018-09-28T01:23:20.704Z,12.47
2018-09-28T01:25:50.178Z,13.80
2018-09-28T01:33:14.263Z,16.23
2018-09-28T01:35:43.760Z,13.83
2018-09-28T01:38:13.282Z,18.20
2018-09-28T01:40:42.901Z,11.57
2018-09-28T01:43:12.466Z,12.40
2018-09-28T01:45:41.938Z,18.07
2018-09-28T01:48:11.463Z,10.43
2018-09-28T01:50:41.017Z,15.20
2018-09-28T01:53:10.748Z,17.30
2018-09-28T01:55:40.250Z,16.77
2018-09-28T01:58:09.837Z,14.53
2018-09-28T02:00:39.278Z,11.30
2018-09-28T02:03:08.740Z,13.60
2018-09-28T02:05:38.836Z,15.17
2018-09-28T02:08:08.353Z,13.77
2018-09-28T02:10:37.838Z,14.33
2018-09-28T02:13:07.236Z,11.80
2018-09-28T02:15:36.643Z,19.80
2018-09-28T02:18:06.216Z,15.63
2018-09-28T02:20:35.629Z,12.07
2018-09-28T02:23:05.438Z,15.80
2018-09-28T02:25:34.964Z,17.60
2018-09-28T02:28:04.338Z,18.67
2018-09-28T02:30:33.999Z,17.07
2018-09-28T02:33:03.465Z,15.33
2018-09-28T02:35:33.096Z,14.20
2018-09-28T02:38:02.585Z,19.23
2018-09-28T02:40:31.938Z,12.50
2018-09-28T02:43:01.418Z,13.50
2018-09-28T02:45:30.988Z,13.67
2018-09-28T02:48:00.617Z,13.60
2018-09-28T02:50:30.168Z,13.97
2018-09-28T02:53:00.617Z,16.93
2018-09-28T02:55:30.110Z,12.43
2018-09-28T02:58:00.518Z,14.75
2018-09-28T03:00:30.045Z,11.63
2018-09-28T03:03:00.474Z,12.23
2018-09-28T03:05:29.983Z,14.57
2018-09-28T03:08:02.459Z,11.67
2018-09-28T03:10:32.009Z,11.90
2018-09-28T03:13:01.486Z,10.57
2018-09-28T03:15:31.007Z,12.60
2018-09-28T03:18:00.614Z,13.35
2018-09-28T03:20:29.994Z,10.27
2018-09-28T03:22:59.274Z,17.55
2018-09-28T03:25:28.641Z,14.37
2018-09-28T03:27:58.104Z,13.33
2018-09-28T03:30:27.634Z,12.03
2018-09-28T03:32:57.108Z,17.80
2018-09-28T03:35:26.592Z,16.93
2018-09-28T03:37:56.177Z,10.00
2018-09-28T03:40:25.504Z,15.10
2018-09-28T03:42:55.024Z,9.90
2018-09-28T03:45:24.468Z,10.07
2018-09-28T03:47:54.000Z,10.50
2018-09-28T03:50:23.511Z,10.07
2018-09-28T03:52:52.992Z,10.10
2018-09-28T03:55:22.551Z,10.50
2018-09-28T03:57:52.040Z,10.57
2018-09-28T04:00:21.632Z,9.40
2018-09-28T04:02:51.261Z,11.73
2018-09-28T04:05:20.792Z,14.40
2018-09-28T04:07:50.189Z,10.40
2018-09-28T04:10:20.456Z,9.43
2018-09-28T04:12:49.743Z,11.67
2018-09-28T04:15:19.332Z,9.43
2018-09-28T04:17:48.719Z,6.57
2018-09-28T04:20:18.244Z,6.43
2018-09-28T04:22:47.661Z,13.83
2018-09-28T04:25:17.184Z,7.22
2018-09-28T04:27:46.809Z,11.90
2018-09-28T04:30:16.336Z,13.22
2018-09-28T04:32:47.508Z,8.57
2018-09-28T04:35:16.851Z,6.78
2018-09-28T04:37:46.323Z,9.03
2018-09-28T04:40:15.778Z,11.05
2018-09-28T04:42:45.179Z,8.03
2018-09-28T04:45:14.705Z,15.87
2018-09-28T04:47:44.123Z,12.88
2018-09-28T04:50:13.603Z,10.65
2018-09-28T04:52:43.119Z,31.17
2018-09-28T04:55:12.776Z,15.20
2018-09-28T04:57:42.319Z,9.83
2018-09-28T05:00:11.858Z,7.78
2018-09-28T05:02:41.320Z,4.87
2018-09-28T05:05:11.444Z,8.65
2018-09-28T05:07:40.912Z,9.60
2018-09-28T05:10:10.317Z,6.07
2018-09-28T05:12:42.560Z,5.57
2018-09-28T05:15:11.999Z,5.63
2018-09-28T05:17:41.484Z,9.10
2018-09-28T05:20:10.967Z,5.17
2018-09-28T05:22:40.825Z,6.57
2018-09-28T05:25:10.380Z,5.08
2018-09-28T05:27:39.844Z,6.70
2018-09-28T05:30:09.136Z,5.40
2018-09-28T05:32:38.639Z,2.97
2018-09-28T05:35:07.745Z,5.23
2018-09-28T05:44:37.295Z,4.27
2018-09-28T05:47:06.702Z,4.65
2018-09-28T05:49:36.067Z,6.37
2018-09-28T05:52:05.388Z,7.27
2018-09-28T05:54:34.859Z,4.40
2018-09-28T05:57:04.303Z,2.17
2018-09-28T05:59:39.032Z,4.17
2018-09-28T06:02:13.628Z,4.03
2018-09-28T06:04:48.344Z,2.03
2018-09-28T06:07:17.832Z,1.80
2018-09-28T06:09:48.223Z,1.67
2018-09-28T06:12:17.699Z,3.08
2018-09-28T06:14:47.323Z,2.27
2018-09-28T06:17:16.819Z,2.87
2018-09-28T06:19:46.340Z,2.57
2018-09-28T06:22:15.796Z,3.92
2018-09-28T06:24:45.232Z,1.93
2018-09-28T06:27:14.552Z,1.07
2018-09-28T06:29:44.074Z,0.83
2018-09-28T06:32:13.879Z,3.80
2018-09-28T06:34:43.323Z,1.87
2018-09-28T06:37:12.830Z,1.17
2018-09-28T06:39:42.276Z,1.40
2018-09-28T06:42:11.788Z,5.45
2018-09-28T06:44:41.210Z,2.30
2018-09-28T06:47:10.696Z,0.90
2018-09-28T06:49:40.138Z,1.70
2018-09-28T06:52:09.630Z,2.27
2018-09-28T06:54:38.964Z,0.77
2018-09-28T06:57:08.398Z,0.90
2018-09-28T06:59:37.851Z,0.63
2018-09-28T07:02:07.279Z,0.68
2018-09-28T07:04:36.715Z,0.60
2018-09-28T07:07:06.056Z,1.77
2018-09-28T07:09:35.349Z,2.17
2018-09-28T07:12:05.790Z,1.43
2018-09-28T07:14:35.184Z,0.70
2018-09-28T07:17:10.085Z,1.07
2018-09-28T07:19:39.727Z,0.67
2018-09-28T07:27:03.772Z,1.57
2018-09-28T07:29:33.240Z,0.60
2018-09-28T07:32:02.765Z,0.50
2018-09-28T07:34:32.090Z,1.23
2018-09-28T07:37:01.803Z,1.85
2018-09-28T07:39:31.171Z,3.07
2018-09-28T07:42:01.831Z,0.87
2018-09-28T07:44:31.492Z,1.50
2018-09-28T07:47:01.523Z,2.37
2018-09-28T07:49:30.980Z,2.00
2018-09-28T07:52:01.433Z,0.70
2018-09-28T07:54:30.884Z,0.50
2018-09-28T07:57:00.650Z,0.50
2018-09-28T07:59:29.929Z,0.60
2018-09-28T08:01:59.255Z,0.73
2018-09-28T08:04:28.540Z,0.63
2018-09-28T08:06:57.932Z,1.07
2018-09-28T08:09:27.303Z,0.53
2018-09-28T08:11:56.700Z,0.93
2018-09-28T08:14:28.716Z,0.80
2018-09-28T08:17:01.092Z,0.97
2018-09-28T08:19:30.495Z,2.53
2018-09-28T08:21:59.895Z,0.60
2018-09-28T08:24:30.006Z,0.82
2018-09-28T08:26:59.328Z,0.70
2018-09-28T08:29:28.793Z,0.80
2018-09-28T08:31:58.291Z,3.23
2018-09-28T08:34:27.595Z,0.57
2018-09-28T08:36:57.187Z,0.57
2018-09-28T08:39:28.891Z,0.63
2018-09-28T08:41:58.495Z,0.80
2018-09-28T08:44:27.815Z,0.60
2018-09-28T08:46:57.268Z,1.33
2018-09-28T08:49:26.721Z,0.70
2018-09-28T08:51:56.451Z,1.07
2018-09-28T08:54:25.779Z,0.60
2018-09-28T08:56:55.160Z,0.57
2018-09-28T08:59:24.540Z,0.40
2018-09-28T09:01:53.882Z,0.83
2018-09-28T09:04:23.481Z,3.50
2018-09-28T09:06:52.859Z,0.70
2018-09-28T09:09:22.260Z,0.60
2018-09-28T09:11:51.709Z,0.80
2018-09-28T09:14:21.055Z,0.70
2018-09-28T09:16:50.444Z,0.90
2018-09-28T09:19:19.908Z,0.60
2018-09-28T09:21:49.364Z,0.70
2018-09-28T09:24:18.749Z,0.50
2018-09-28T09:26:48.039Z,0.50
2018-09-28T09:29:17.532Z,1.37
2018-09-28T09:31:47.003Z,1.50
2018-09-28T09:34:16.423Z,0.60
2018-09-28T09:38:42.230Z,1.27
2018-09-28T09:41:11.579Z,1.82
2018-09-28T09:43:41.087Z,0.77
2018-09-28T09:46:10.539Z,3.03
2018-09-28T09:48:40.003Z,0.62
2018-09-28T09:51:09.564Z,1.05
2018-09-28T09:53:39.226Z,1.47
2018-09-28T09:56:08.680Z,0.60
2018-09-28T09:58:38.070Z,0.90
2018-09-28T10:01:08.441Z,0.50
2018-09-28T10:03:43.164Z,0.60
2018-09-28T10:06:12.669Z,0.50
2018-09-28T10:08:42.106Z,0.50
2018-09-28T10:11:18.035Z,0.55
2018-09-28T10:13:47.467Z,0.60
2018-09-28T10:16:16.972Z,0.90
2018-09-28T10:18:46.452Z,1.57
2018-09-28T10:21:15.975Z,0.50
2018-09-28T10:23:45.656Z,0.60
2018-09-28T10:26:15.912Z,0.53
2018-09-28T10:28:45.384Z,1.10
2018-09-28T10:31:14.755Z,3.00
2018-09-28T10:33:44.298Z,0.93
2018-09-28T10:36:14.129Z,0.50
2018-09-28T10:38:43.555Z,1.00
2018-09-28T10:41:13.011Z,0.90
2018-09-28T10:43:42.427Z,0.80
2018-09-28T10:46:12.013Z,0.60
2018-09-28T10:48:41.642Z,0.70
2018-09-28T10:51:11.159Z,0.80
2018-09-28T10:53:40.555Z,0.50
2018-09-28T10:56:09.944Z,3.20
2018-09-28T10:58:39.324Z,0.57
2018-09-28T11:01:08.877Z,0.50
2018-09-28T11:03:38.396Z,0.50
2018-09-28T11:06:07.936Z,0.50
2018-09-28T11:08:37.343Z,1.03
2018-09-28T11:11:07.145Z,0.57
2018-09-28T11:13:36.561Z,0.30
2018-09-28T11:16:05.969Z,0.60
2018-09-28T11:18:35.324Z,0.70
2018-09-28T11:21:04.703Z,0.60
2018-09-28T11:23:33.991Z,1.23
2018-09-28T11:26:03.283Z,0.60
2018-09-28T11:28:32.761Z,0.50
2018-09-28T11:31:02.425Z,2.02
2018-09-28T11:33:31.818Z,0.50
2018-09-28T11:41:00.200Z,24.37
2018-09-28T11:43:30.488Z,0.72
2018-09-28T11:46:00.016Z,0.60
2018-09-28T11:48:29.359Z,1.43
2018-09-28T11:50:58.823Z,0.40
2018-09-28T11:53:28.274Z,0.80
2018-09-28T11:55:57.660Z,0.40
2018-09-28T11:58:27.115Z,0.57
2018-09-28T12:00:56.580Z,0.43
2018-09-28T12:03:26.158Z,0.50
2018-09-28T12:05:55.617Z,0.50
2018-09-28T12:08:25.009Z,0.40
2018-09-28T12:10:54.511Z,0.53
2018-09-28T12:13:24.055Z,3.13
2018-09-28T12:15:53.528Z,1.50
2018-09-28T12:18:23.278Z,0.60
2018-09-28T12:20:52.737Z,1.40
2018-09-28T12:23:22.240Z,1.10
2018-09-28T12:25:51.637Z,5.97
2018-09-28T12:28:21.059Z,5.87
2018-09-28T12:30:50.511Z,7.93
2018-09-28T12:33:19.925Z,0.83
2018-09-28T12:35:49.406Z,1.00
2018-09-28T12:38:18.844Z,0.77
2018-09-28T12:40:48.204Z,2.47
2018-09-28T12:43:17.736Z,0.77
2018-09-28T12:47:42.619Z,1.63
2018-09-28T12:50:12.100Z,1.90
2018-09-28T12:52:41.463Z,0.67
2018-09-28T12:55:10.767Z,1.13
2018-09-28T12:57:40.140Z,0.60
2018-09-28T13:00:09.703Z,1.12
2018-09-28T13:02:39.230Z,2.77
2018-09-28T13:05:08.567Z,0.67
2018-09-28T13:07:38.088Z,0.70
2018-09-28T13:10:07.832Z,0.80
2018-09-28T13:12:37.160Z,1.83
2018-09-28T13:15:13.334Z,2.63
2018-09-28T13:17:42.615Z,1.63
2018-09-28T13:20:12.106Z,3.40
2018-09-28T13:22:41.575Z,1.60
2018-09-28T13:25:10.887Z,0.88
2018-09-28T13:27:40.776Z,0.50
2018-09-28T13:30:11.757Z,1.15
2018-09-28T13:32:41.291Z,1.70
2018-09-28T13:35:10.635Z,17.37
2018-09-28T13:37:40.085Z,3.43
2018-09-28T13:40:10.404Z,1.03
2018-09-28T13:42:39.932Z,3.03
2018-09-28T13:45:09.254Z,3.15
2018-09-28T13:47:38.941Z,0.70
2018-09-28T13:50:08.373Z,0.53
2018-09-28T13:52:37.876Z,2.23
2018-09-28T13:55:08.131Z,0.70
2018-09-28T13:57:37.587Z,0.77
2018-09-28T14:00:07.744Z,3.43
2018-09-28T14:02:37.104Z,0.60
2018-09-28T14:05:06.428Z,0.63
2018-09-28T14:07:35.875Z,1.37
2018-09-28T14:10:05.471Z,0.40
2018-09-28T14:12:34.804Z,0.55
2018-09-28T14:15:04.180Z,0.60
2018-09-28T14:17:33.657Z,2.83
2018-09-28T14:20:03.167Z,1.90
2018-09-28T14:22:32.665Z,1.35
2018-09-28T14:25:02.982Z,0.70
2018-09-28T14:27:32.307Z,0.63
2018-09-28T14:30:01.766Z,0.57
2018-09-28T14:32:31.953Z,2.17
2018-09-28T14:35:01.493Z,0.50
2018-09-28T14:37:30.931Z,0.40
2018-09-28T14:40:00.328Z,1.50
2018-09-28T14:42:31.027Z,2.37
2018-09-28T14:45:00.758Z,2.30
2018-09-28T14:47:30.256Z,3.83
2018-09-28T14:49:59.650Z,0.77
2018-09-28T14:52:29.072Z,1.07
2018-09-28T14:54:58.505Z,0.83
2018-09-28T14:57:27.954Z,0.50
2018-09-28T14:59:57.411Z,0.90
2018-09-28T15:02:26.964Z,0.67
2018-09-28T15:04:56.310Z,2.67
2018-09-28T15:07:26.061Z,1.13
2018-09-28T15:09:55.489Z,0.70
2018-09-28T15:12:24.988Z,1.00
2018-09-28T15:14:54.428Z,0.42
2018-09-28T15:17:23.900Z,1.70
2018-09-28T15:19:53.368Z,1.33
2018-09-28T15:22:22.729Z,0.70
2018-09-28T15:24:52.126Z,2.02
2018-09-28T15:27:21.628Z,1.80
2018-09-28T15:29:50.967Z,0.60
2018-09-28T15:32:20.360Z,0.53
2018-09-28T15:34:49.683Z,0.45
2018-09-28T15:37:19.149Z,1.07
2018-09-28T15:39:48.497Z,0.43
2018-09-28T15:42:17.847Z,0.50
2018-09-28T15:44:47.191Z,0.60
2018-09-28T15:47:16.666Z,1.90
2018-09-28T15:49:46.147Z,0.60
2018-09-28T15:52:15.497Z,0.60
2018-09-28T15:54:45.016Z,0.93
2018-09-28T15:57:14.499Z,2.98
2018-09-28T15:59:43.883Z,10.30
2018-09-28T16:02:13.340Z,1.55
2018-09-28T16:04:42.700Z,1.23
2018-09-28T16:07:12.203Z,2.05
2018-09-28T16:09:41.743Z,0.40
2018-09-28T16:12:11.391Z,1.00
2018-09-28T16:14:40.761Z,3.15
2018-09-28T16:17:10.244Z,1.00
2018-09-28T16:19:39.747Z,0.70
2018-09-28T16:22:09.229Z,1.70
2018-09-28T16:24:38.734Z,8.93
2018-09-28T16:27:08.513Z,0.77
2018-09-28T16:29:38.052Z,1.43
2018-09-28T16:32:07.702Z,1.80
2018-09-28T16:34:37.227Z,0.80
2018-09-28T16:37:07.275Z,1.53
2018-09-28T16:39:36.911Z,1.70
2018-09-28T16:42:06.691Z,2.03
2018-09-28T16:44:36.188Z,4.10
2018-09-28T16:47:05.911Z,18.37
2018-09-28T16:49:35.414Z,0.70
2018-09-28T16:52:05.005Z,2.53
2018-09-28T16:54:34.576Z,0.80
2018-09-28T16:57:04.229Z,1.67
2018-09-28T16:59:33.671Z,0.93
2018-09-28T17:02:03.788Z,1.27
2018-09-28T17:04:33.323Z,5.43
2018-09-28T17:07:03.704Z,4.07
2018-09-28T17:09:33.040Z,1.90
2018-09-28T17:12:02.415Z,12.23
2018-09-28T17:14:32.064Z,6.43
2018-09-28T17:17:01.696Z,6.67
2018-09-28T17:19:32.288Z,2.87
2018-09-28T17:22:01.788Z,1.27
2018-09-28T17:24:31.103Z,1.30
2018-09-28T17:27:00.453Z,2.17
2018-09-28T17:29:29.936Z,3.17
2018-09-28T17:31:59.415Z,1.50
2018-09-28T17:34:28.960Z,2.10
2018-09-28T17:36:58.403Z,2.90
2018-09-28T17:39:27.742Z,1.67
2018-09-28T17:41:57.103Z,1.57
2018-09-28T17:44:26.561Z,0.97
2018-09-28T17:46:55.995Z,4.43
2018-09-28T17:49:25.423Z,2.33
2018-09-28T17:51:54.780Z,4.20
2018-09-28T17:54:24.116Z,3.70
2018-09-28T17:56:53.509Z,5.70
2018-09-28T17:59:23.805Z,0.90
2018-09-28T18:01:53.293Z,5.45
2018-09-28T18:04:22.631Z,0.93
2018-09-28T18:06:52.291Z,9.50
2018-09-28T18:09:21.783Z,2.00
2018-09-28T18:11:52.502Z,1.55
2018-09-28T18:14:22.060Z,4.30
2018-09-28T18:16:51.491Z,6.17
2018-09-28T18:19:20.831Z,10.00
2018-09-28T18:21:50.189Z,7.73
2018-09-28T18:24:19.570Z,6.73
2018-09-28T18:26:49.044Z,7.90
2018-09-28T18:29:18.486Z,0.70
2018-09-28T18:31:47.965Z,2.67
2018-09-28T18:34:17.423Z,3.62
2018-09-28T18:36:47.048Z,3.13
2018-09-28T18:39:16.525Z,2.05
2018-09-28T18:41:46.022Z,3.37
2018-09-28T18:44:15.361Z,2.03
2018-09-28T18:46:44.618Z,1.73
2018-09-28T18:49:14.166Z,1.40
2018-09-28T18:51:43.651Z,2.00
2018-09-28T18:54:13.111Z,3.92
2018-09-28T18:56:42.540Z,3.37
2018-09-28T18:59:12.016Z,2.52
2018-09-28T19:01:43.575Z,0.90
2018-09-28T19:04:12.979Z,11.38
2018-09-28T19:06:42.396Z,2.23
2018-09-28T19:09:12.483Z,3.37
2018-09-28T19:11:42.448Z,3.03
2018-09-28T19:14:11.864Z,3.60
2018-09-28T19:16:41.155Z,1.23
2018-09-28T19:19:10.520Z,7.70
2018-09-28T19:21:39.937Z,1.60
2018-09-28T19:24:09.288Z,5.33
2018-09-28T19:26:38.837Z,4.00
2018-09-28T19:29:08.331Z,1.20
2018-09-28T19:31:37.731Z,4.33
2018-09-28T19:34:07.176Z,1.40
2018-09-28T19:36:36.471Z,3.43
2018-09-28T19:39:08.120Z,2.53
2018-09-28T19:41:38.040Z,1.97
2018-09-28T19:44:07.547Z,2.43
2018-09-28T19:46:36.884Z,1.23
2018-09-28T19:49:06.475Z,1.73
2018-09-28T19:51:36.344Z,2.37
2018-09-28T19:54:05.733Z,1.30
2018-09-28T19:56:35.198Z,2.97
2018-09-28T19:59:04.580Z,3.43
2018-09-28T20:01:34.024Z,1.40
2018-09-28T20:04:05.216Z,2.83
2018-09-28T20:06:34.619Z,7.57
2018-09-28T20:09:06.524Z,2.47
2018-09-28T20:11:36.225Z,4.00
2018-09-28T20:14:05.776Z,1.93
2018-09-28T20:16:35.169Z,3.30
2018-09-28T20:19:04.681Z,3.07
2018-09-28T20:21:34.213Z,3.80
2018-09-28T20:24:04.602Z,7.28
2018-09-28T20:26:33.987Z,3.30
2018-09-28T20:29:04.436Z,4.57
2018-09-28T20:31:33.887Z,1.80
2018-09-28T20:34:03.415Z,1.30
2018-09-28T20:36:32.791Z,1.37
2018-09-28T20:39:02.241Z,0.90
2018-09-28T20:41:31.707Z,1.83
2018-09-28T20:44:01.036Z,1.03
2018-09-28T20:46:30.387Z,2.03
2018-09-28T20:48:59.761Z,1.57
2018-09-28T20:51:29.139Z,1.57
2018-09-28T20:53:58.696Z,3.07
2018-09-28T20:56:27.980Z,2.57
2018-09-28T20:58:57.420Z,0.77
2018-09-28T21:01:27.075Z,1.57
2018-09-28T21:03:56.571Z,0.73
2018-09-28T21:06:25.903Z,4.37
2018-09-28T21:08:55.358Z,1.77
2018-09-28T21:11:24.768Z,1.30
2018-09-28T21:13:54.057Z,0.90
2018-09-28T21:16:23.379Z,1.10
2018-09-28T21:18:52.910Z,1.00
2018-09-28T21:21:22.364Z,0.90
2018-09-28T21:23:51.820Z,3.90
2018-09-28T21:26:21.973Z,2.58
2018-09-28T21:28:51.355Z,6.50
2018-09-28T21:31:20.755Z,2.03
2018-09-28T21:33:50.077Z,1.23
2018-09-28T21:36:19.337Z,1.40
2018-09-28T21:38:48.771Z,2.47
2018-09-28T21:41:18.282Z,1.32
2018-09-28T21:43:47.739Z,1.27
2018-09-28T21:46:17.153Z,1.33
2018-09-28T21:48:46.510Z,1.30
2018-09-28T21:51:16.025Z,3.98
2018-09-28T21:53:45.447Z,1.10
2018-09-28T21:56:14.815Z,2.58
2018-09-28T21:58:44.274Z,2.13
2018-09-28T22:01:17.484Z,1.32
2018-09-28T22:03:47.907Z,0.97
2018-09-28T22:06:17.391Z,2.67
2018-09-28T22:08:46.699Z,1.77
2018-09-28T22:11:16.123Z,1.30
2018-09-28T22:13:45.526Z,1.50
2018-09-28T22:16:14.827Z,1.50
2018-09-28T22:18:44.172Z,1.53
2018-09-28T22:21:13.555Z,2.00
2018-09-28T22:23:43.215Z,1.30
2018-09-28T22:26:12.661Z,1.27
2018-09-28T22:31:23.915Z,2.60
2018-09-28T22:33:53.389Z,1.20
2018-09-28T22:36:22.832Z,4.97
2018-09-28T22:38:52.327Z,0.87
2018-09-28T22:41:21.775Z,2.57
2018-09-28T22:43:51.364Z,2.57
2018-09-28T22:46:20.719Z,2.30
2018-09-28T22:48:50.215Z,0.80
2018-09-28T22:51:19.539Z,1.33
2018-09-28T22:53:48.796Z,2.43
2018-09-28T22:56:18.072Z,1.80
2018-09-28T22:58:47.369Z,1.40
2018-09-28T23:01:16.652Z,2.57
2018-09-28T23:03:46.084Z,1.90
2018-09-28T23:06:15.516Z,2.05
2018-09-28T23:08:45.003Z,1.00
2018-09-28T23:11:14.335Z,1.32
2018-09-28T23:13:43.755Z,1.00
2018-09-28T23:16:13.392Z,2.40
2018-09-28T23:18:42.800Z,5.77
2018-09-28T23:21:12.257Z,1.47
2018-09-28T23:23:41.679Z,1.30
2018-09-28T23:26:11.080Z,1.30
2018-09-28T23:28:43.432Z,1.13
2018-09-28T23:31:12.735Z,3.55
2018-09-28T23:33:41.971Z,1.77
2018-09-28T23:36:11.247Z,1.75
2018-09-28T23:38:40.607Z,1.60
2018-09-28T23:41:10.074Z,3.47
2018-09-28T23:43:39.472Z,1.40
2018-09-28T23:46:08.943Z,1.70
2018-09-28T23:48:38.379Z,2.70
2018-09-28T23:51:09.486Z,2.07
2018-09-28T23:53:39.002Z,1.60
2018-09-28T23:56:08.466Z,9.33
2018-09-28T23:58:37.893Z,3.70
